메인 페이지
METAR-TAF:

METAR-TAF

공항 :

진나 국제공항

카라치, 파키스탄

위도: 24-54N, 경도: 067-08E, 고도: 21m

현재 날씨관측

예보는 23분 전, 05:25시(UTC)에 발표되었습니다.
서남서6kt
온도 31°C
습도 59%
기압 999 hPa
시정: 6000m
고도 2000ft 상공 구름 보통
고도 3000ft 상공 구름 많음

METAR: OPKC 230525Z 24006KT 6000 SCT020 BKN030 31/22 Q0999 NOSIG

시각: 10:48 (05:48 UTC)

예보

예보는 1 시간 48분 전, 04:00시(UTC)에 발표되었습니다.
예보 대상 시간: 23일 06시부터 24일 12시까지 (UTC)
남서8kt, 순간 최대 풍속 18kt
시정: 5000m
고도 2000ft 상공 구름 많음
연무
23일 2200시부터 (UTC)
서남서8kt, 순간 최대 풍속 18kt
시정: 4000m
고도 2000ft 상공 구름 많음
연무
24일 0600시부터 (UTC)
남서8kt, 순간 최대 풍속 18kt
시정: 5000m
고도 2000ft 상공 구름 많음
연무

TAF: OPKC 230400Z 2306/2412 23008G18KT 5000 HZ BKN020 FM232200 25008G18KT 4000 HZ BKN020 FM240600 23008G18KT 5000 HZ BKN020

4,000개 이상의 공항 관측 자료 및 예보 (METAR 및 TAF 보고).

지도상에서 검색 가능한 기상관측소가 노란 점과 빨간 점으로 표시되어 있습니다.

기상관측소 명을 보려면 표시 위로 마우스를 이동하세요.

날씨 관측과 예보를 보려면 클릭하세요.

지도 변경 : 확대하려면 엑스 표시가 있는 녹색 버튼, 축소하려면 빼기 표시가 있는 녹색 버튼, 다음 페이지의 지도를 보려면 녹색 화살표를 클릭하세요.


METAR-TAF: